createdAt,value
2017-05-08T00:00:39.583Z,935.73
2017-05-08T00:01:52.368Z,935.72
2017-05-08T00:03:05.165Z,935.72
2017-05-08T00:04:17.962Z,935.7
2017-05-08T00:05:30.748Z,935.7
2017-05-08T00:06:43.565Z,935.69
2017-05-08T00:07:56.353Z,935.73
2017-05-08T00:09:08.653Z,935.71
2017-05-08T00:10:20.957Z,935.72
2017-05-08T00:11:33.737Z,935.71
2017-05-08T00:12:46.340Z,935.73
2017-05-08T00:13:59.128Z,935.73
2017-05-08T00:15:11.432Z,935.72
2017-05-08T00:16:24.215Z,935.71
2017-05-08T00:17:36.515Z,935.74
2017-05-08T00:18:49.319Z,935.75
2017-05-08T00:20:02.103Z,935.73
2017-05-08T00:21:13.920Z,935.71
2017-05-08T00:22:26.223Z,935.71
2017-05-08T00:23:39.008Z,935.67
2017-05-08T00:24:51.795Z,935.69
2017-05-08T00:26:04.099Z,935.72
2017-05-08T00:27:16.883Z,935.71
2017-05-08T00:28:29.863Z,935.71
2017-05-08T00:29:42.642Z,935.68
2017-05-08T00:30:55.430Z,935.68
2017-05-08T00:32:08.215Z,935.65
2017-05-08T00:33:20.520Z,935.67
2017-05-08T00:34:33.502Z,935.63
2017-05-08T00:35:46.296Z,935.64
2017-05-08T00:36:59.080Z,935.6
2017-05-08T00:38:11.863Z,935.6
2017-05-08T00:39:24.461Z,935.61
2017-05-08T00:40:36.768Z,935.59
2017-05-08T00:41:49.552Z,935.61
2017-05-08T00:43:02.337Z,935.59
2017-05-08T00:44:14.157Z,935.61
2017-05-08T00:45:27.143Z,935.56
2017-05-08T00:46:39.446Z,935.56
2017-05-08T00:47:51.746Z,935.58
2017-05-08T00:49:04.539Z,935.58
2017-05-08T00:50:16.363Z,935.59
2017-05-08T00:51:29.160Z,935.58
2017-05-08T00:52:41.957Z,935.57
2017-05-08T00:53:54.754Z,935.55
2017-05-08T00:55:07.066Z,935.59
2017-05-08T00:56:19.093Z,935.54
2017-05-08T00:57:31.927Z,935.59
2017-05-08T00:58:44.785Z,935.6
2017-05-08T00:59:57.757Z,935.6
2017-05-08T01:01:10.343Z,935.66
2017-05-08T01:02:22.754Z,935.66
2017-05-08T01:03:35.606Z,935.63
2017-05-08T01:04:48.695Z,935.63
2017-05-08T01:06:01.533Z,935.63
2017-05-08T01:07:14.325Z,935.61
2017-05-08T01:08:26.687Z,935.64
2017-05-08T01:09:39.499Z,935.62
2017-05-08T01:10:52.410Z,935.65
2017-05-08T01:12:05.220Z,935.6
2017-05-08T01:13:18.139Z,935.63
2017-05-08T01:14:30.964Z,935.61
2017-05-08T01:15:44.063Z,935.63
2017-05-08T01:16:57.134Z,935.6
2017-05-08T01:18:10.483Z,935.6
2017-05-08T01:19:22.522Z,935.61
2017-05-08T01:20:35.373Z,935.59
2017-05-08T01:21:48.482Z,935.61
2017-05-08T01:23:01.145Z,935.63
2017-05-08T01:24:13.747Z,935.63
2017-05-08T01:25:26.360Z,935.62
2017-05-08T01:26:38.987Z,935.62
2017-05-08T01:27:51.996Z,935.58
2017-05-08T01:29:05.627Z,935.56
2017-05-08T01:30:18.552Z,935.56
2017-05-08T01:31:31.474Z,935.52
2017-05-08T01:32:43.839Z,935.51
2017-05-08T01:33:56.985Z,935.5
2017-05-08T01:35:10.245Z,935.5
2017-05-08T01:36:23.537Z,935.51
2017-05-08T01:37:36.884Z,935.55
2017-05-08T01:38:49.668Z,935.52
2017-05-08T01:40:02.454Z,935.51
2017-05-08T01:41:15.246Z,935.5
2017-05-08T01:42:28.030Z,935.49
2017-05-08T01:43:40.342Z,935.42
2017-05-08T01:44:53.129Z,935.43
2017-05-08T01:46:05.914Z,935.44
2017-05-08T01:47:18.218Z,935.41
2017-05-08T01:48:31.002Z,935.42
2017-05-08T01:49:43.783Z,935.43
2017-05-08T01:50:56.768Z,935.36
2017-05-08T01:52:09.551Z,935.37
2017-05-08T01:53:22.332Z,935.35
2017-05-08T01:54:35.118Z,935.34
2017-05-08T01:55:47.900Z,935.28
2017-05-08T01:57:00.685Z,935.28
2017-05-08T01:58:13.464Z,935.27
2017-05-08T01:59:26.251Z,935.25
2017-05-08T02:00:38.556Z,935.22
2017-05-08T02:01:51.341Z,935.21
2017-05-08T02:03:04.126Z,935.19
2017-05-08T02:04:16.423Z,935.24
2017-05-08T02:05:29.215Z,935.2
2017-05-08T02:06:42.198Z,935.17
2017-05-08T02:07:54.981Z,935.15
2017-05-08T02:09:07.767Z,935.13
2017-05-08T02:10:20.550Z,935.13
2017-05-08T02:11:33.332Z,935.13
2017-05-08T02:12:46.317Z,935.09
2017-05-08T02:13:59.110Z,935.09
2017-05-08T02:15:11.900Z,935.16
2017-05-08T02:16:24.684Z,935.12
2017-05-08T02:17:37.465Z,935.12
2017-05-08T02:18:50.249Z,935.08
2017-05-08T02:20:02.557Z,935.06
2017-05-08T02:21:14.857Z,935.12
2017-05-08T02:22:27.641Z,935.1
2017-05-08T02:23:40.721Z,935.08
2017-05-08T02:24:53.502Z,935.12
2017-05-08T02:26:06.283Z,935.13
2017-05-08T02:27:19.069Z,935.15
2017-05-08T02:28:32.066Z,935.13
2017-05-08T02:29:44.370Z,935.15
2017-05-08T02:30:56.671Z,935.14
2017-05-08T02:32:09.451Z,935.15
2017-05-08T02:33:22.237Z,935.14
2017-05-08T02:34:34.539Z,935.13
2017-05-08T02:35:46.844Z,935.09
2017-05-08T02:36:59.628Z,935.13
2017-05-08T02:38:12.416Z,935.15
2017-05-08T02:39:25.016Z,935.13
2017-05-08T02:40:37.809Z,935.18
2017-05-08T02:41:50.595Z,935.16
2017-05-08T02:43:03.385Z,935.19
2017-05-08T02:44:15.683Z,935.17
2017-05-08T02:45:28.461Z,935.19
2017-05-08T02:46:41.253Z,935.21
2017-05-08T02:47:53.553Z,935.2
2017-05-08T02:49:05.857Z,935.25
2017-05-08T02:50:18.845Z,935.21
2017-05-08T02:51:31.630Z,935.21
2017-05-08T02:52:44.410Z,935.21
2017-05-08T02:53:56.713Z,935.23
2017-05-08T02:55:09.496Z,935.25
2017-05-08T02:56:22.284Z,935.2
2017-05-08T02:57:35.070Z,935.16
2017-05-08T02:58:47.855Z,935.14
2017-05-08T03:00:00.690Z,935.1
2017-05-08T03:01:13.476Z,935.13
2017-05-08T03:02:26.273Z,935.12
2017-05-08T03:03:39.062Z,935.13
2017-05-08T03:04:51.847Z,935.09
2017-05-08T03:06:04.635Z,935.16
2017-05-08T03:07:17.420Z,935.11
2017-05-08T03:08:30.241Z,935.12
2017-05-08T03:09:43.027Z,935.12
2017-05-08T03:10:55.824Z,935.1
2017-05-08T03:12:08.809Z,935.1
2017-05-08T03:13:21.112Z,935.05
2017-05-08T03:14:33.415Z,935.08
2017-05-08T03:15:46.199Z,935.02
2017-05-08T03:16:58.990Z,934.99
2017-05-08T03:18:11.333Z,934.98
2017-05-08T03:19:24.112Z,934.99
2017-05-08T03:20:36.900Z,935
2017-05-08T03:21:49.686Z,935
2017-05-08T03:23:02.671Z,934.98
2017-05-08T03:24:15.455Z,934.94
2017-05-08T03:25:27.761Z,934.89
2017-05-08T03:26:40.067Z,934.87
2017-05-08T03:27:52.845Z,934.83
2017-05-08T03:29:05.157Z,934.82
2017-05-08T03:30:17.962Z,934.83
2017-05-08T03:31:30.280Z,934.83
2017-05-08T03:32:43.065Z,934.78
2017-05-08T03:33:55.577Z,934.78
2017-05-08T03:35:08.363Z,934.76
2017-05-08T03:36:20.667Z,934.75
2017-05-08T03:37:33.450Z,934.72
2017-05-08T03:38:45.757Z,934.73
2017-05-08T03:39:58.549Z,934.71
2017-05-08T03:41:10.855Z,934.69
2017-05-08T03:42:22.674Z,934.69
2017-05-08T03:43:35.462Z,934.69
2017-05-08T03:44:48.248Z,934.69
2017-05-08T03:46:01.035Z,934.66
2017-05-08T03:47:13.816Z,934.62
2017-05-08T03:48:26.117Z,934.62
2017-05-08T03:49:38.900Z,934.58
2017-05-08T03:50:51.984Z,934.64
2017-05-08T03:52:04.766Z,934.62
2017-05-08T03:53:17.064Z,934.63
2017-05-08T03:54:29.367Z,934.62
2017-05-08T03:55:42.149Z,934.61
2017-05-08T03:56:54.929Z,934.59
2017-05-08T03:58:07.719Z,934.59
2017-05-08T03:59:20.504Z,934.56
2017-05-08T04:00:33.286Z,934.5
2017-05-08T04:01:46.373Z,934.46
2017-05-08T04:02:59.161Z,934.46
2017-05-08T04:04:11.464Z,934.46
2017-05-08T04:05:24.247Z,934.42
2017-05-08T04:06:37.025Z,934.44
2017-05-08T04:07:49.325Z,934.44
2017-05-08T04:09:02.109Z,934.39
2017-05-08T04:10:14.420Z,934.39
2017-05-08T04:11:27.202Z,934.39
2017-05-08T04:12:40.184Z,934.37
2017-05-08T04:13:52.974Z,934.34
2017-05-08T04:15:05.278Z,934.35
2017-05-08T04:16:18.074Z,934.3
2017-05-08T04:17:30.858Z,934.27
2017-05-08T04:18:43.640Z,934.26
2017-05-08T04:19:55.938Z,934.2
2017-05-08T04:21:08.722Z,934.19
2017-05-08T04:22:21.505Z,934.16
2017-05-08T04:23:34.291Z,934.19
2017-05-08T04:24:47.074Z,934.1
2017-05-08T04:25:59.381Z,934.13
2017-05-08T04:27:11.682Z,934.09
2017-05-08T04:28:24.189Z,934.03
2017-05-08T04:29:36.981Z,934.05
2017-05-08T04:30:49.765Z,934.07
2017-05-08T04:32:02.543Z,934.06
2017-05-08T04:33:14.845Z,934.09
2017-05-08T04:34:27.663Z,934.08
2017-05-08T04:35:40.444Z,934.04
2017-05-08T04:36:53.225Z,934.05
2017-05-08T04:38:06.005Z,934.05
2017-05-08T04:39:18.309Z,934.05
2017-05-08T04:40:31.096Z,934.05
2017-05-08T04:41:43.893Z,934.05
2017-05-08T04:42:56.680Z,934.06
2017-05-08T04:44:09.461Z,934.02
2017-05-08T04:45:22.057Z,934.01
2017-05-08T04:46:34.847Z,933.98
2017-05-08T04:47:47.628Z,933.95
2017-05-08T04:48:59.456Z,933.96
2017-05-08T04:50:12.238Z,933.96
2017-05-08T04:51:24.565Z,933.95
2017-05-08T04:52:37.355Z,933.94
2017-05-08T04:53:50.142Z,933.96
2017-05-08T04:55:02.928Z,933.97
2017-05-08T04:56:15.909Z,933.96
2017-05-08T04:57:28.692Z,933.95
2017-05-08T04:58:41.482Z,933.95
2017-05-08T04:59:53.782Z,933.95
2017-05-08T05:01:06.763Z,934
2017-05-08T05:02:19.542Z,933.99
2017-05-08T05:03:31.841Z,933.97
2017-05-08T05:04:44.626Z,933.95
2017-05-08T05:05:57.407Z,933.94
2017-05-08T05:07:09.535Z,933.91
2017-05-08T05:08:22.322Z,933.88
2017-05-08T05:09:35.106Z,933.91
2017-05-08T05:10:47.409Z,933.9
2017-05-08T05:12:00.394Z,933.89
2017-05-08T05:13:13.188Z,933.91
2017-05-08T05:14:25.977Z,933.87
2017-05-08T05:15:38.759Z,933.88
2017-05-08T05:16:51.057Z,933.88
2017-05-08T05:18:04.148Z,933.85
2017-05-08T05:19:16.929Z,933.83
2017-05-08T05:20:29.276Z,933.85
2017-05-08T05:21:42.066Z,933.84
2017-05-08T05:22:55.155Z,933.82
2017-05-08T05:24:07.467Z,933.81
2017-05-08T05:25:19.819Z,933.8
2017-05-08T05:26:32.187Z,933.78
2017-05-08T05:27:44.989Z,933.75
2017-05-08T05:28:57.784Z,933.78
2017-05-08T05:30:09.135Z,933.72
2017-05-08T05:31:21.932Z,933.72
2017-05-08T05:32:34.728Z,933.7
2017-05-08T05:33:47.521Z,933.67
2017-05-08T05:34:59.838Z,933.68
2017-05-08T05:36:12.627Z,933.66
2017-05-08T05:37:24.971Z,933.63
2017-05-08T05:38:37.760Z,933.6
2017-05-08T05:39:50.281Z,933.58
2017-05-08T05:41:02.600Z,933.6
2017-05-08T05:42:15.393Z,933.56
2017-05-08T05:43:26.743Z,933.62
2017-05-08T05:44:39.252Z,933.61
2017-05-08T05:45:52.052Z,933.63
2017-05-08T05:47:04.843Z,933.58
2017-05-08T05:48:17.151Z,933.59
2017-05-08T05:49:29.465Z,933.57
2017-05-08T05:50:42.559Z,933.59
2017-05-08T05:51:55.347Z,933.59
2017-05-08T05:53:07.658Z,933.56
2017-05-08T05:54:20.443Z,933.52
2017-05-08T05:55:33.439Z,933.51
2017-05-08T05:56:46.241Z,933.51
2017-05-08T05:57:59.038Z,933.48
2017-05-08T05:59:11.351Z,933.49
2017-05-08T06:00:24.149Z,933.44
2017-05-08T06:01:36.761Z,933.46
2017-05-08T06:02:49.568Z,933.48
2017-05-08T06:04:02.365Z,933.47
2017-05-08T06:05:14.674Z,933.44
2017-05-08T06:06:26.973Z,933.45
2017-05-08T06:07:39.275Z,933.45
2017-05-08T06:08:52.068Z,933.45
2017-05-08T06:10:04.853Z,933.42
2017-05-08T06:11:17.153Z,933.42
2017-05-08T06:12:29.764Z,933.4
2017-05-08T06:13:42.549Z,933.44
2017-05-08T06:14:55.331Z,933.4
2017-05-08T06:16:07.629Z,933.38
2017-05-08T06:17:20.406Z,933.41
2017-05-08T06:18:32.714Z,933.42
2017-05-08T06:19:44.534Z,933.46
2017-05-08T06:20:57.318Z,933.45
2017-05-08T06:22:09.621Z,933.45
2017-05-08T06:23:22.235Z,933.46
2017-05-08T06:24:35.026Z,933.47
2017-05-08T06:25:47.804Z,933.42
2017-05-08T06:27:00.109Z,933.45
2017-05-08T06:28:12.890Z,933.43
2017-05-08T06:29:25.678Z,933.44
2017-05-08T06:30:38.464Z,933.39
2017-05-08T06:31:51.243Z,933.39
2017-05-08T06:33:04.023Z,933.38
2017-05-08T06:34:16.800Z,933.34
2017-05-08T06:35:29.587Z,933.33
2017-05-08T06:36:42.373Z,933.35
2017-05-08T06:37:55.155Z,933.32
2017-05-08T06:39:08.143Z,933.33
2017-05-08T06:40:20.441Z,933.37
2017-05-08T06:41:33.221Z,933.4
2017-05-08T06:42:46.005Z,933.4
2017-05-08T06:43:58.787Z,933.38
2017-05-08T06:45:11.566Z,933.37
2017-05-08T06:46:24.375Z,933.37
2017-05-08T06:47:37.157Z,933.33
2017-05-08T06:48:49.935Z,933.3
2017-05-08T06:50:02.246Z,933.31
2017-05-08T06:51:15.047Z,933.29
2017-05-08T06:52:27.839Z,933.32
2017-05-08T06:53:40.629Z,933.3
2017-05-08T06:54:53.407Z,933.3
2017-05-08T06:56:06.021Z,933.32
2017-05-08T06:57:17.840Z,933.29
2017-05-08T06:58:30.627Z,933.29
2017-05-08T06:59:43.411Z,933.28
2017-05-08T07:00:56.502Z,933.31
2017-05-08T07:02:09.286Z,933.31
2017-05-08T07:03:21.593Z,933.34
2017-05-08T07:04:34.372Z,933.33
2017-05-08T07:05:47.154Z,933.34
2017-05-08T07:06:59.933Z,933.29
2017-05-08T07:08:12.709Z,933.33
2017-05-08T07:09:25.005Z,933.3
2017-05-08T07:10:37.793Z,933.35
2017-05-08T07:11:50.094Z,933.31
2017-05-08T07:13:02.874Z,933.32
2017-05-08T07:14:15.653Z,933.28
2017-05-08T07:15:28.459Z,933.28
2017-05-08T07:16:41.246Z,933.3
2017-05-08T07:17:54.034Z,933.27
2017-05-08T07:19:06.338Z,933.3
2017-05-08T07:20:19.119Z,933.3
2017-05-08T07:21:31.416Z,933.33
2017-05-08T07:22:44.500Z,933.35
2017-05-08T07:23:57.284Z,933.34
2017-05-08T07:25:10.061Z,933.37
2017-05-08T07:26:22.880Z,933.37
2017-05-08T07:27:35.179Z,933.35
2017-05-08T07:28:47.964Z,933.38
2017-05-08T07:30:00.750Z,933.38
2017-05-08T07:31:13.533Z,933.36
2017-05-08T07:32:26.317Z,933.38
2017-05-08T07:33:39.103Z,933.37
2017-05-08T07:34:51.397Z,933.4
2017-05-08T07:36:03.693Z,933.43
2017-05-08T07:37:15.992Z,933.46
2017-05-08T07:38:28.774Z,933.43
2017-05-08T07:39:41.075Z,933.41
2017-05-08T07:40:53.372Z,933.38
2017-05-08T07:42:06.155Z,933.38
2017-05-08T07:43:18.931Z,933.37
2017-05-08T07:44:31.731Z,933.4
2017-05-08T07:45:44.029Z,933.39
2017-05-08T07:46:56.323Z,933.4
2017-05-08T07:48:08.620Z,933.39
2017-05-08T07:49:20.915Z,933.38
2017-05-08T07:50:33.509Z,933.37
2017-05-08T07:51:45.809Z,933.39
2017-05-08T07:52:58.113Z,933.33
2017-05-08T07:54:10.893Z,933.37
2017-05-08T07:55:23.673Z,933.3
2017-05-08T07:56:35.971Z,933.35
2017-05-08T07:57:48.754Z,933.34
2017-05-08T07:59:00.573Z,933.32
2017-05-08T08:00:13.349Z,933.33
2017-05-08T08:01:26.128Z,933.35
2017-05-08T08:02:38.910Z,933.37
2017-05-08T08:03:51.206Z,933.42
2017-05-08T08:05:02.540Z,933.42
2017-05-08T08:06:15.520Z,933.43
2017-05-08T08:07:28.305Z,933.42
2017-05-08T08:08:41.083Z,933.43
2017-05-08T08:09:53.386Z,933.42
2017-05-08T08:11:05.688Z,933.41
2017-05-08T08:12:18.467Z,933.41
2017-05-08T08:13:31.251Z,933.39
2017-05-08T08:14:43.554Z,933.41
2017-05-08T08:15:55.852Z,933.35
2017-05-08T08:17:08.833Z,933.44
2017-05-08T08:18:21.132Z,933.42
2017-05-08T08:19:33.432Z,933.43
2017-05-08T08:20:46.218Z,933.43
2017-05-08T08:21:59.012Z,933.42
2017-05-08T08:23:11.838Z,933.45
2017-05-08T08:24:24.139Z,933.47
2017-05-08T08:25:36.931Z,933.51
2017-05-08T08:26:49.729Z,933.51
2017-05-08T08:28:02.528Z,933.55
2017-05-08T08:29:14.848Z,933.51
2017-05-08T08:30:27.164Z,933.54
2017-05-08T08:31:39.478Z,933.48
2017-05-08T08:32:51.791Z,933.53
2017-05-08T08:34:04.397Z,933.52
2017-05-08T08:35:16.701Z,933.59
2017-05-08T08:36:29.490Z,933.59
2017-05-08T08:37:42.284Z,933.61
2017-05-08T08:38:54.119Z,933.61
2017-05-08T08:40:06.903Z,933.62
2017-05-08T08:41:19.214Z,933.64
2017-05-08T08:42:32.007Z,933.66
2017-05-08T08:43:44.316Z,933.64
2017-05-08T08:44:57.108Z,933.65
2017-05-08T08:46:08.926Z,933.66
2017-05-08T08:47:21.712Z,933.68
2017-05-08T08:48:34.503Z,933.69
2017-05-08T08:49:46.999Z,933.69
2017-05-08T08:50:58.819Z,933.71
2017-05-08T08:52:11.117Z,933.71
2017-05-08T08:53:23.902Z,933.73
2017-05-08T08:54:36.217Z,933.73
2017-05-08T08:55:48.034Z,933.77
2017-05-08T08:57:00.822Z,933.74
2017-05-08T08:58:13.131Z,933.78
2017-05-08T08:59:25.922Z,933.79
2017-05-08T09:00:38.712Z,933.8
2017-05-08T09:01:51.215Z,933.8
2017-05-08T09:03:03.525Z,933.8
2017-05-08T09:04:16.344Z,933.81
2017-05-08T09:05:29.138Z,933.85
2017-05-08T09:06:41.432Z,933.86
2017-05-08T09:07:52.287Z,933.84
2017-05-08T09:09:05.084Z,933.85
2017-05-08T09:10:17.864Z,933.86
2017-05-08T09:11:30.162Z,933.86
2017-05-08T09:12:43.144Z,933.89
2017-05-08T09:13:54.986Z,933.91
2017-05-08T09:15:07.283Z,933.91
2017-05-08T09:16:20.059Z,933.93
2017-05-08T09:17:32.354Z,933.89
2017-05-08T09:18:45.143Z,933.89
2017-05-08T09:19:56.959Z,933.94
2017-05-08T09:21:09.770Z,933.95
2017-05-08T09:22:22.554Z,933.94
2017-05-08T09:23:35.335Z,933.99
2017-05-08T09:24:48.118Z,933.97
2017-05-08T09:25:59.938Z,933.93
2017-05-08T09:27:12.718Z,933.97
2017-05-08T09:28:25.798Z,933.99
2017-05-08T09:29:38.107Z,933.96
2017-05-08T09:30:50.403Z,933.95
2017-05-08T09:32:02.703Z,933.96
2017-05-08T09:33:15.481Z,933.98
2017-05-08T09:34:28.090Z,933.98
2017-05-08T09:35:40.385Z,934
2017-05-08T09:36:52.208Z,934.04
2017-05-08T09:38:04.026Z,934.04
2017-05-08T09:39:16.327Z,934.02
2017-05-08T09:40:28.626Z,934.02
2017-05-08T09:41:41.406Z,933.99
2017-05-08T09:42:53.706Z,934.01
2017-05-08T09:44:05.530Z,934.04
2017-05-08T09:45:18.314Z,934.02
2017-05-08T09:46:31.093Z,934.04
2017-05-08T09:47:43.871Z,934.05
2017-05-08T09:48:56.655Z,934.05
2017-05-08T09:50:09.736Z,934.04
2017-05-08T09:51:21.550Z,934.05
2017-05-08T09:52:33.365Z,934.05
2017-05-08T09:53:46.151Z,934.05
2017-05-08T09:54:58.443Z,934.08
2017-05-08T09:56:11.422Z,934.12
2017-05-08T09:57:23.719Z,934.1
2017-05-08T09:58:36.022Z,934.15
2017-05-08T09:59:48.317Z,934.18
2017-05-08T10:01:00.336Z,934.15
2017-05-08T10:02:13.113Z,934.19
2017-05-08T10:03:25.410Z,934.17
2017-05-08T10:04:38.190Z,934.22
2017-05-08T10:05:50.489Z,934.17
2017-05-08T10:07:03.572Z,934.16
2017-05-08T10:08:14.905Z,934.15
2017-05-08T10:09:27.203Z,934.16
2017-05-08T10:10:39.981Z,934.22
2017-05-08T10:11:52.477Z,934.22
2017-05-08T10:13:05.259Z,934.26
2017-05-08T10:14:18.039Z,934.23
2017-05-08T10:15:30.820Z,934.26
2017-05-08T10:16:43.116Z,934.25
2017-05-08T10:17:55.891Z,934.27
2017-05-08T10:19:08.192Z,934.22
2017-05-08T10:20:20.986Z,934.23
2017-05-08T10:21:33.286Z,934.21
2017-05-08T10:22:45.588Z,934.2
2017-05-08T10:23:57.886Z,934.21
2017-05-08T10:25:10.665Z,934.25
2017-05-08T10:26:23.479Z,934.26
2017-05-08T10:27:35.777Z,934.25
2017-05-08T10:28:48.276Z,934.29
2017-05-08T10:30:00.574Z,934.28
2017-05-08T10:31:12.870Z,934.3
2017-05-08T10:32:24.687Z,934.29
2017-05-08T10:33:37.465Z,934.28
2017-05-08T10:34:49.763Z,934.27
2017-05-08T10:36:02.072Z,934.34
2017-05-08T10:37:14.861Z,934.33
2017-05-08T10:38:27.651Z,934.34
2017-05-08T10:39:40.434Z,934.41
2017-05-08T10:40:52.742Z,934.38
2017-05-08T10:42:05.534Z,934.41
2017-05-08T10:43:18.321Z,934.43
2017-05-08T10:44:31.110Z,934.41
2017-05-08T10:45:43.900Z,934.42
2017-05-08T10:46:56.724Z,934.43
2017-05-08T10:48:08.551Z,934.46
2017-05-08T10:49:20.866Z,934.42
2017-05-08T10:50:33.165Z,934.5
2017-05-08T10:51:44.999Z,934.48
2017-05-08T10:52:57.787Z,934.53
2017-05-08T10:54:10.089Z,934.52
2017-05-08T10:55:22.388Z,934.49
2017-05-08T10:56:34.704Z,934.49
2017-05-08T10:57:47.014Z,934.49
2017-05-08T10:58:59.318Z,934.45
2017-05-08T11:00:11.613Z,934.47
2017-05-08T11:01:24.602Z,934.46
2017-05-08T11:02:37.394Z,934.46
2017-05-08T11:03:49.224Z,934.46
2017-05-08T11:05:01.524Z,934.47
2017-05-08T11:06:14.314Z,934.44
2017-05-08T11:07:26.145Z,934.47
2017-05-08T11:08:38.931Z,934.45
2017-05-08T11:09:50.265Z,934.46
2017-05-08T11:11:02.084Z,934.44
2017-05-08T11:12:14.871Z,934.45
2017-05-08T11:13:27.663Z,934.41
2017-05-08T11:14:40.443Z,934.42
2017-05-08T11:15:52.266Z,934.41
2017-05-08T11:17:05.058Z,934.4
2017-05-08T11:18:17.367Z,934.42
2017-05-08T11:19:29.675Z,934.43
2017-05-08T11:20:41.969Z,934.38
2017-05-08T11:21:54.265Z,934.39
2017-05-08T11:23:06.279Z,934.4
2017-05-08T11:24:19.059Z,934.38
2017-05-08T11:25:29.925Z,934.37
2017-05-08T11:26:42.223Z,934.35
2017-05-08T11:27:54.535Z,934.36
2017-05-08T11:29:06.351Z,934.33
2017-05-08T11:30:19.140Z,934.39
2017-05-08T11:31:31.439Z,934.36
2017-05-08T11:32:44.216Z,934.38
2017-05-08T11:33:57.011Z,934.43
2017-05-08T11:35:09.306Z,934.45
2017-05-08T11:36:22.084Z,934.44
2017-05-08T11:37:34.391Z,934.48
2017-05-08T11:38:47.178Z,934.53
2017-05-08T11:39:59.481Z,934.5
2017-05-08T11:41:11.819Z,934.51
2017-05-08T11:42:24.124Z,934.52
2017-05-08T11:43:36.433Z,934.48
2017-05-08T11:44:48.741Z,934.52
2017-05-08T11:46:00.077Z,934.51
2017-05-08T11:47:11.895Z,934.55
2017-05-08T11:48:23.243Z,934.56
2017-05-08T11:49:36.029Z,934.61
2017-05-08T11:50:48.812Z,934.58
2017-05-08T11:52:00.650Z,934.57
2017-05-08T11:53:12.950Z,934.62
2017-05-08T11:54:25.742Z,934.61
2017-05-08T11:55:38.053Z,934.6
2017-05-08T11:56:51.181Z,934.61
2017-05-08T11:58:03.003Z,934.6
2017-05-08T11:59:15.794Z,934.64
2017-05-08T12:00:27.616Z,934.66
2017-05-08T12:01:39.927Z,934.66
2017-05-08T12:02:52.232Z,934.7
2017-05-08T12:04:04.534Z,934.67
2017-05-08T12:05:17.323Z,934.72
2017-05-08T12:06:29.637Z,934.7
2017-05-08T12:07:41.459Z,934.69
2017-05-08T12:08:53.290Z,934.72
2017-05-08T12:10:06.073Z,934.69
2017-05-08T12:11:18.859Z,934.74
2017-05-08T12:12:31.645Z,934.73
2017-05-08T12:13:44.463Z,934.76
2017-05-08T12:14:56.284Z,934.72
2017-05-08T12:16:09.067Z,934.7
2017-05-08T12:17:20.915Z,934.7
2017-05-08T12:18:33.217Z,934.72
2017-05-08T12:19:45.047Z,934.76
2017-05-08T12:20:57.832Z,934.75
2017-05-08T12:22:10.136Z,934.76
2017-05-08T12:23:22.930Z,934.74
2017-05-08T12:24:35.712Z,934.79
2017-05-08T12:25:48.020Z,934.74
2017-05-08T12:27:00.810Z,934.77
2017-05-08T12:28:13.597Z,934.79
2017-05-08T12:29:26.385Z,934.82
2017-05-08T12:30:39.170Z,934.81
2017-05-08T12:31:51.956Z,934.8
2017-05-08T12:33:04.269Z,934.74
2017-05-08T12:34:16.096Z,934.75
2017-05-08T12:35:28.884Z,934.75
2017-05-08T12:36:41.666Z,934.75
2017-05-08T12:37:53.972Z,934.81
2017-05-08T12:39:06.194Z,934.8
2017-05-08T12:40:18.017Z,934.83
2017-05-08T12:41:30.329Z,934.83
2017-05-08T12:42:43.122Z,934.8
2017-05-08T12:43:55.951Z,934.8
2017-05-08T12:45:22.339Z,934.72
2017-05-08T12:46:34.172Z,934.69
2017-05-08T12:47:46.968Z,934.68
2017-05-08T12:48:59.765Z,934.68
2017-05-08T12:50:26.171Z,934.67
2017-05-08T12:51:39.005Z,934.7
2017-05-08T12:52:51.352Z,934.71
2017-05-08T12:54:04.152Z,934.68
2017-05-08T12:55:15.984Z,934.72
2017-05-08T12:56:28.804Z,934.72
2017-05-08T12:57:41.625Z,934.73
2017-05-08T12:58:54.408Z,934.72
2017-05-08T13:00:06.715Z,934.71
2017-05-08T13:01:18.553Z,934.7
2017-05-08T13:02:31.413Z,934.71
2017-05-08T13:03:44.205Z,934.65
2017-05-08T13:04:56.989Z,934.66
2017-05-08T13:06:09.297Z,934.66
2017-05-08T13:07:21.122Z,934.68
2017-05-08T13:08:33.433Z,934.69
2017-05-08T13:09:45.740Z,934.61
2017-05-08T13:10:58.043Z,934.67
2017-05-08T13:12:10.349Z,934.65
2017-05-08T13:13:23.134Z,934.64
2017-05-08T13:14:35.918Z,934.67
2017-05-08T13:15:48.701Z,934.59
2017-05-08T13:17:01.488Z,934.64
2017-05-08T13:18:14.278Z,934.64
2017-05-08T13:19:26.593Z,934.65
2017-05-08T13:20:39.379Z,934.65
2017-05-08T13:21:51.686Z,934.67
2017-05-08T13:23:04.477Z,934.65
2017-05-08T13:24:16.329Z,934.66
2017-05-08T13:25:29.120Z,934.67
2017-05-08T13:26:41.424Z,934.62
2017-05-08T13:27:54.216Z,934.64
2017-05-08T13:29:07.005Z,934.64
2017-05-08T13:30:19.796Z,934.59
2017-05-08T13:31:32.587Z,934.59
2017-05-08T13:32:45.376Z,934.58
2017-05-08T13:33:58.168Z,934.56
2017-05-08T13:35:10.970Z,934.52
2017-05-08T13:36:23.290Z,934.5
2017-05-08T13:37:36.080Z,934.42
2017-05-08T13:38:48.888Z,934.46
2017-05-08T13:40:01.838Z,934.49
2017-05-08T13:41:14.145Z,934.47
2017-05-08T13:42:26.947Z,934.53
2017-05-08T13:43:39.739Z,934.51
2017-05-08T13:44:52.055Z,934.48
2017-05-08T13:46:04.569Z,934.46
2017-05-08T13:47:16.390Z,934.46
2017-05-08T13:48:28.218Z,934.39
2017-05-08T13:49:41.006Z,934.4
2017-05-08T13:50:53.802Z,934.38
2017-05-08T13:52:06.590Z,934.31
2017-05-08T13:53:19.397Z,934.34
2017-05-08T13:54:31.710Z,934.3
2017-05-08T13:55:44.500Z,934.26
2017-05-08T13:56:57.291Z,934.24
2017-05-08T13:58:10.091Z,934.22
2017-05-08T13:59:22.396Z,934.23
2017-05-08T14:00:35.185Z,934.26
2017-05-08T14:01:48.175Z,934.24
2017-05-08T14:03:00.965Z,934.25
2017-05-08T14:04:13.278Z,934.28
2017-05-08T14:05:26.066Z,934.28
2017-05-08T14:06:38.593Z,934.29
2017-05-08T14:07:51.414Z,934.31
2017-05-08T14:09:03.718Z,934.31
2017-05-08T14:10:16.512Z,934.28
2017-05-08T14:11:29.302Z,934.2
2017-05-08T14:12:42.425Z,934.23
2017-05-08T14:13:54.736Z,934.22
2017-05-08T14:15:06.566Z,934.24
2017-05-08T14:16:18.869Z,934.21
2017-05-08T14:17:31.329Z,934.24
2017-05-08T14:18:43.635Z,934.21
2017-05-08T14:19:56.433Z,934.21
2017-05-08T14:21:08.270Z,934.24
2017-05-08T14:22:20.590Z,934.17
2017-05-08T14:23:33.381Z,934.17
2017-05-08T14:24:46.177Z,934.18
2017-05-08T14:25:58.968Z,934.15
2017-05-08T14:27:11.278Z,934.14
2017-05-08T14:28:24.270Z,934.1
2017-05-08T14:29:37.057Z,934.1
2017-05-08T14:30:48.880Z,934.11
2017-05-08T14:32:01.669Z,934.08
2017-05-08T14:34:55.397Z,934.01
2017-05-08T14:36:07.223Z,934.03
2017-05-08T14:37:19.527Z,933.99
2017-05-08T14:38:31.837Z,933.96
2017-05-08T14:39:44.630Z,933.92
2017-05-08T14:40:56.940Z,933.88
2017-05-08T14:42:09.728Z,933.84
2017-05-08T14:43:21.560Z,933.84
2017-05-08T14:44:34.551Z,933.87
2017-05-08T14:45:47.344Z,933.82
2017-05-08T14:47:00.133Z,933.87
2017-05-08T14:48:12.920Z,933.84
2017-05-08T14:49:26.208Z,933.81
2017-05-08T14:50:39.005Z,933.79
2017-05-08T14:51:51.797Z,933.73
2017-05-08T14:53:04.103Z,933.7
2017-05-08T14:54:16.890Z,933.73
2017-05-08T14:55:29.680Z,933.71
2017-05-08T14:56:41.984Z,933.72
2017-05-08T14:57:54.769Z,933.68
2017-05-08T14:59:07.073Z,933.68
2017-05-08T15:00:20.158Z,933.66
2017-05-08T15:01:32.462Z,933.65
2017-05-08T15:02:45.252Z,933.63
2017-05-08T15:03:58.044Z,933.62
2017-05-08T15:05:10.356Z,933.61
2017-05-08T15:06:23.155Z,933.58
2017-05-08T15:07:35.942Z,933.58
2017-05-08T15:08:48.731Z,933.55
2017-05-08T15:10:01.514Z,933.5
2017-05-08T15:11:14.312Z,933.49